createdAt,value
2022-07-27T00:01:21.066Z,100104.03
2022-07-27T00:03:51.279Z,100098.16
2022-07-27T00:06:20.177Z,100096.47
2022-07-27T00:08:48.754Z,100092.41
2022-07-27T00:11:17.521Z,100094.03
2022-07-27T00:13:46.979Z,100096.84
2022-07-27T00:16:15.631Z,100099.03
2022-07-27T00:18:44.641Z,100105.19
2022-07-27T00:21:15.071Z,100111.50
2022-07-27T00:23:43.710Z,100107.47
2022-07-27T00:26:12.414Z,100110.22
2022-07-27T00:28:41.159Z,100104.19
2022-07-27T00:31:09.789Z,100117.28
2022-07-27T00:33:38.597Z,100127.41
2022-07-27T00:36:08.066Z,100136.72
2022-07-27T00:38:38.091Z,100140.69
2022-07-27T00:41:06.988Z,100131.34
2022-07-27T00:43:52.683Z,100139.81
2022-07-27T00:46:21.524Z,100148.19
2022-07-27T00:48:51.373Z,100157.47
2022-07-27T00:51:22.646Z,100165.00
2022-07-27T00:53:54.552Z,100163.16
2022-07-27T00:56:24.023Z,100166.13
2022-07-27T00:58:54.710Z,100167.22
2022-07-27T01:01:23.480Z,100174.97
2022-07-27T01:03:52.186Z,100165.31
2022-07-27T01:06:26.859Z,100173.22
2022-07-27T01:09:14.137Z,100169.44
2022-07-27T01:11:43.402Z,100177.41
2022-07-27T01:14:14.762Z,100172.69
2022-07-27T01:16:44.599Z,100169.06
2022-07-27T01:19:15.928Z,100186.59
2022-07-27T01:21:46.256Z,100180.28
2022-07-27T01:24:14.972Z,100176.84
2022-07-27T01:26:44.033Z,100182.00
2022-07-27T01:29:13.107Z,100176.41
2022-07-27T01:31:42.156Z,100181.13
2022-07-27T01:34:10.844Z,100182.94
2022-07-27T01:36:40.359Z,100183.41
2022-07-27T01:39:10.765Z,100181.03
2022-07-27T01:41:39.497Z,100176.13
2022-07-27T01:44:08.320Z,100180.28
2022-07-27T01:46:37.029Z,100176.03
2022-07-27T01:49:06.421Z,100172.50
2022-07-27T01:51:35.469Z,100178.78
2022-07-27T01:54:04.493Z,100178.38
2022-07-27T01:56:34.533Z,100182.09
2022-07-27T01:59:03.382Z,100191.66
2022-07-27T02:01:32.000Z,100192.13
2022-07-27T02:04:00.576Z,100193.25
2022-07-27T02:06:29.452Z,100194.69
2022-07-27T02:08:58.125Z,100193.25
2022-07-27T02:11:44.418Z,100198.72
2022-07-27T02:14:16.461Z,100201.13
2022-07-27T02:16:45.205Z,100195.81
2022-07-27T02:19:14.277Z,100198.72
2022-07-27T02:21:43.159Z,100199.28
2022-07-27T02:24:11.752Z,100194.06
2022-07-27T02:26:40.567Z,100200.97
2022-07-27T02:29:10.339Z,100205.47
2022-07-27T02:31:40.555Z,100209.38
2022-07-27T02:34:09.320Z,100211.66
2022-07-27T02:36:37.933Z,100215.72
2022-07-27T02:39:06.698Z,100217.22
2022-07-27T02:41:35.469Z,100216.53
2022-07-27T02:44:04.110Z,100224.50
2022-07-27T02:46:32.762Z,100216.38
2022-07-27T02:49:02.979Z,100219.47
2022-07-27T02:51:31.659Z,100215.13
2022-07-27T02:54:00.909Z,100221.91
2022-07-27T02:56:30.126Z,100223.88
2022-07-27T02:58:58.909Z,100232.13
2022-07-27T03:01:27.641Z,100237.03
2022-07-27T03:03:56.459Z,100241.69
2022-07-27T03:06:26.564Z,100239.75
2022-07-27T03:08:55.153Z,100242.00
2022-07-27T03:11:23.975Z,100235.44
2022-07-27T03:13:52.888Z,100244.63
2022-07-27T03:16:21.669Z,100246.16
2022-07-27T03:18:50.604Z,100252.84
2022-07-27T03:21:19.255Z,100259.59
2022-07-27T03:23:51.513Z,100269.53
2022-07-27T03:26:20.468Z,100270.34
2022-07-27T03:28:49.051Z,100278.91
2022-07-27T03:31:17.669Z,100270.22
2022-07-27T03:33:46.973Z,100278.03
2022-07-27T03:36:15.635Z,100279.69
2022-07-27T03:38:44.264Z,100280.97
2022-07-27T03:41:14.578Z,100292.56
2022-07-27T03:43:43.281Z,100280.81
2022-07-27T03:46:12.858Z,100285.28
2022-07-27T03:48:41.758Z,100283.91
2022-07-27T03:51:10.346Z,100297.03
2022-07-27T03:53:38.930Z,100288.13
2022-07-27T03:56:07.720Z,100295.81
2022-07-27T03:58:37.668Z,100303.38
2022-07-27T04:01:06.315Z,100304.63
2022-07-27T04:03:35.110Z,100308.56
2022-07-27T04:06:03.674Z,100310.63
2022-07-27T04:08:32.324Z,100313.59
2022-07-27T04:11:01.072Z,100317.22
2022-07-27T04:13:30.579Z,100313.19
2022-07-27T04:16:01.506Z,100310.88
2022-07-27T04:18:30.812Z,100315.63
2022-07-27T04:21:03.355Z,100321.47
2022-07-27T04:23:37.735Z,100323.47
2022-07-27T04:26:06.872Z,100322.44
2022-07-27T04:28:36.834Z,100322.22
2022-07-27T04:31:06.758Z,100328.22
2022-07-27T04:33:35.387Z,100328.38
2022-07-27T04:36:04.429Z,100335.66
2022-07-27T04:38:33.060Z,100339.41
2022-07-27T04:41:01.626Z,100339.56
2022-07-27T04:43:30.419Z,100336.72
2022-07-27T04:45:59.061Z,100340.69
2022-07-27T04:48:29.276Z,100344.56
2022-07-27T04:50:58.085Z,100345.13
2022-07-27T04:53:26.813Z,100342.78
2022-07-27T04:55:56.469Z,100342.59
2022-07-27T04:58:25.367Z,100324.00
2022-07-27T05:00:53.950Z,100334.75
2022-07-27T05:03:22.665Z,100345.22
2022-07-27T05:05:53.764Z,100339.03
2022-07-27T05:08:24.075Z,100343.03
2022-07-27T05:10:53.212Z,100333.56
2022-07-27T05:13:21.814Z,100336.19
2022-07-27T05:15:54.800Z,100325.09
2022-07-27T05:18:25.610Z,100326.22
2022-07-27T05:20:55.731Z,100344.34
2022-07-27T05:23:24.393Z,100337.66
2022-07-27T05:25:53.386Z,100338.44
2022-07-27T05:28:21.972Z,100350.16
2022-07-27T05:30:50.646Z,100346.25
2022-07-27T05:33:19.757Z,100350.38
2022-07-27T05:35:48.410Z,100349.47
2022-07-27T05:38:18.389Z,100345.44
2022-07-27T05:40:48.114Z,100346.22
2022-07-27T05:43:16.752Z,100346.28
2022-07-27T05:45:45.435Z,100355.56
2022-07-27T05:48:14.291Z,100354.69
2022-07-27T05:50:43.815Z,100356.75
2022-07-27T05:53:13.006Z,100350.00
2022-07-27T05:55:58.691Z,100347.19
2022-07-27T05:58:29.596Z,100359.44
2022-07-27T06:00:58.877Z,100354.47
2022-07-27T06:03:28.110Z,100349.38
2022-07-27T06:06:16.902Z,100352.81
2022-07-27T06:08:45.064Z,100355.84
2022-07-27T06:11:15.109Z,100369.88
2022-07-27T06:13:43.776Z,100359.28
2022-07-27T06:16:12.767Z,100366.78
2022-07-27T06:18:41.402Z,100378.09
2022-07-27T06:21:10.735Z,100373.19
2022-07-27T06:23:39.710Z,100372.19
2022-07-27T06:26:09.187Z,100379.66
2022-07-27T06:28:39.187Z,100388.03
2022-07-27T06:31:08.160Z,100374.84
2022-07-27T06:33:37.832Z,100376.41
2022-07-27T06:36:08.492Z,100373.19
2022-07-27T06:38:37.732Z,100370.69
2022-07-27T06:41:06.278Z,100372.19
2022-07-27T06:43:35.404Z,100366.75
2022-07-27T06:46:07.268Z,100370.09
2022-07-27T06:48:35.918Z,100368.75
2022-07-27T06:51:04.858Z,100365.56
2022-07-27T06:53:36.205Z,100374.19
2022-07-27T06:56:08.400Z,100373.09
2022-07-27T06:58:38.781Z,100369.25
2022-07-27T07:01:09.038Z,100369.84
2022-07-27T07:03:37.737Z,100371.34
2022-07-27T07:06:06.534Z,100371.56
2022-07-27T07:08:35.731Z,100365.09
2022-07-27T07:11:04.619Z,100371.03
2022-07-27T07:13:37.728Z,100374.13
2022-07-27T07:16:09.492Z,100369.88
2022-07-27T07:18:38.108Z,100368.47
2022-07-27T07:21:06.830Z,100363.88
2022-07-27T07:23:35.733Z,100356.31
2022-07-27T07:26:04.430Z,100348.75
2022-07-27T07:28:33.183Z,100358.53
2022-07-27T07:31:02.124Z,100362.75
2022-07-27T07:33:32.121Z,100358.53
2022-07-27T07:36:12.069Z,100372.94
2022-07-27T07:38:43.389Z,100361.41
2022-07-27T07:41:12.229Z,100366.47
2022-07-27T07:43:42.302Z,100371.66
2022-07-27T07:46:11.227Z,100370.38
2022-07-27T07:48:43.463Z,100377.56
2022-07-27T07:51:13.122Z,100376.06
2022-07-27T07:53:42.040Z,100388.00
2022-07-27T07:56:10.901Z,100374.66
2022-07-27T07:58:39.750Z,100378.81
2022-07-27T08:01:08.414Z,100386.94
2022-07-27T08:03:36.986Z,100388.22
2022-07-27T08:06:08.252Z,100386.91
2022-07-27T08:08:36.967Z,100384.22
2022-07-27T08:11:05.510Z,100378.81
2022-07-27T08:13:34.475Z,100376.94
2022-07-27T08:16:03.276Z,100374.19
2022-07-27T08:18:32.264Z,100385.19
2022-07-27T08:21:01.108Z,100372.28
2022-07-27T08:23:32.047Z,100382.22
2022-07-27T08:26:05.605Z,100382.63
2022-07-27T08:28:37.453Z,100379.25
2022-07-27T08:31:17.104Z,100385.47
2022-07-27T08:33:51.557Z,100380.03
2022-07-27T08:36:20.154Z,100388.28
2022-07-27T08:38:50.165Z,100394.59
2022-07-27T08:41:24.044Z,100396.03
2022-07-27T08:43:55.571Z,100401.25
2022-07-27T08:46:28.376Z,100409.09
2022-07-27T08:48:57.789Z,100409.91
2022-07-27T08:51:26.893Z,100403.91
2022-07-27T08:53:57.394Z,100413.69
2022-07-27T08:56:26.030Z,100410.94
2022-07-27T08:58:55.369Z,100416.44
2022-07-27T09:01:24.131Z,100419.47
2022-07-27T09:03:52.935Z,100419.59
2022-07-27T09:06:44.945Z,100417.31
2022-07-27T09:09:23.322Z,100427.00
2022-07-27T09:12:07.940Z,100417.13
2022-07-27T09:14:39.073Z,100421.16
2022-07-27T09:20:19.002Z,100414.06
2022-07-27T09:22:52.405Z,100413.44
2022-07-27T09:25:52.277Z,100422.72
2022-07-27T09:28:13.255Z,100422.59
2022-07-27T09:30:44.075Z,100425.56
2022-07-27T09:33:16.313Z,100411.38
2022-07-27T09:35:46.304Z,100409.13
2022-07-27T09:38:20.039Z,100421.03
2022-07-27T09:40:59.949Z,100418.63
2022-07-27T09:44:19.857Z,100420.94
2022-07-27T09:46:30.989Z,100413.75
2022-07-27T09:49:00.116Z,100415.25
2022-07-27T09:51:59.271Z,100410.25
2022-07-27T09:54:18.247Z,100416.47
2022-07-27T09:57:01.401Z,100414.53
2022-07-27T09:59:31.296Z,100420.03
2022-07-27T10:02:01.621Z,100414.47
2022-07-27T10:04:33.605Z,100406.81
2022-07-27T10:07:06.148Z,100411.50
2022-07-27T10:09:36.814Z,100429.47
2022-07-27T10:12:08.061Z,100409.13
2022-07-27T10:14:36.653Z,100411.84
2022-07-27T10:17:07.823Z,100414.09
2022-07-27T10:19:46.715Z,100410.47
2022-07-27T10:22:15.875Z,100420.94
2022-07-27T10:24:47.692Z,100419.03
2022-07-27T10:27:23.041Z,100414.16
2022-07-27T10:29:52.807Z,100405.75
2022-07-27T10:32:31.164Z,100421.56
2022-07-27T10:35:01.722Z,100415.59
2022-07-27T10:37:33.165Z,100407.38
2022-07-27T10:40:23.290Z,100412.44
2022-07-27T10:43:09.091Z,100401.44
2022-07-27T10:46:00.002Z,100408.41
2022-07-27T10:48:47.724Z,100409.13
2022-07-27T10:51:35.690Z,100407.56
2022-07-27T10:54:23.142Z,100412.19
2022-07-27T10:56:54.879Z,100407.97
2022-07-27T11:00:10.216Z,100398.03
2022-07-27T11:02:43.535Z,100403.13
2022-07-27T11:05:53.447Z,100402.59
2022-07-27T11:08:35.616Z,100407.63
2022-07-27T11:10:51.346Z,100395.88
2022-07-27T11:13:22.092Z,100398.00
2022-07-27T11:16:09.673Z,100396.56
2022-07-27T11:18:55.567Z,100392.06
2022-07-27T11:21:28.707Z,100397.91
2022-07-27T11:24:00.278Z,100403.03
2022-07-27T11:26:31.101Z,100395.78
2022-07-27T11:28:59.895Z,100390.03
2022-07-27T11:31:54.242Z,100399.09
2022-07-27T11:34:20.285Z,100397.28
2022-07-27T11:36:51.221Z,100395.63
2022-07-27T11:42:21.650Z,100395.69
2022-07-27T11:44:53.701Z,100401.38
2022-07-27T11:47:24.257Z,100405.88
2022-07-27T11:49:53.122Z,100409.19
2022-07-27T11:52:23.764Z,100401.41
2022-07-27T11:54:53.690Z,100404.84
2022-07-27T11:57:32.070Z,100401.56
2022-07-27T12:00:00.625Z,100396.34
2022-07-27T12:02:30.872Z,100401.53
2022-07-27T12:05:03.037Z,100396.56
2022-07-27T12:07:33.849Z,100405.56
2022-07-27T12:10:06.896Z,100389.50
2022-07-27T12:12:38.473Z,100390.75
2022-07-27T12:18:07.796Z,100390.88
2022-07-27T12:20:37.834Z,100382.44
2022-07-27T12:23:08.723Z,100386.72
2022-07-27T12:25:39.109Z,100386.28
2022-07-27T12:28:12.578Z,100386.81
2022-07-27T12:30:44.868Z,100386.09
2022-07-27T12:33:29.956Z,100381.75
2022-07-27T12:36:01.346Z,100389.81
2022-07-27T12:38:39.754Z,100387.22
2022-07-27T12:41:08.752Z,100388.06
2022-07-27T12:43:38.092Z,100384.03
2022-07-27T12:46:13.831Z,100393.44
2022-07-27T12:48:44.620Z,100389.63
2022-07-27T12:51:13.347Z,100384.84
2022-07-27T12:53:41.884Z,100385.34
2022-07-27T12:56:11.615Z,100389.13
2022-07-27T12:58:41.321Z,100386.44
2022-07-27T13:01:09.990Z,100379.66
2022-07-27T13:03:39.156Z,100374.00
2022-07-27T13:06:12.967Z,100382.31
2022-07-27T13:08:42.520Z,100376.28
2022-07-27T13:11:11.355Z,100383.88
2022-07-27T13:13:42.868Z,100375.41
2022-07-27T13:16:11.743Z,100377.44
2022-07-27T13:18:40.353Z,100381.53
2022-07-27T13:21:10.726Z,100377.56
2022-07-27T13:23:39.440Z,100377.56
2022-07-27T13:26:08.901Z,100374.88
2022-07-27T13:28:37.693Z,100377.38
2022-07-27T13:31:06.359Z,100369.38
2022-07-27T13:33:35.019Z,100369.63
2022-07-27T13:36:05.172Z,100367.97
2022-07-27T13:38:35.164Z,100368.41
2022-07-27T13:41:04.357Z,100360.25
2022-07-27T13:43:33.181Z,100362.53
2022-07-27T13:46:03.335Z,100367.44
2022-07-27T13:48:32.650Z,100359.53
2022-07-27T13:51:01.671Z,100357.16
2022-07-27T13:53:30.515Z,100358.88
2022-07-27T13:56:01.553Z,100354.88
2022-07-27T13:58:31.500Z,100356.97
2022-07-27T14:01:04.076Z,100357.03
2022-07-27T14:03:36.292Z,100357.34
2022-07-27T14:06:05.213Z,100351.38
2022-07-27T14:08:36.479Z,100356.53
2022-07-27T14:11:07.002Z,100352.56
2022-07-27T14:13:36.133Z,100352.78
2022-07-27T14:16:06.858Z,100360.41
2022-07-27T14:18:36.286Z,100356.59
2022-07-27T14:21:07.951Z,100355.56
2022-07-27T14:23:38.108Z,100350.97
2022-07-27T14:26:10.165Z,100361.09
2022-07-27T14:28:40.807Z,100357.47
2022-07-27T14:31:12.405Z,100355.78
2022-07-27T14:33:41.954Z,100360.34
2022-07-27T14:36:10.875Z,100364.25
2022-07-27T14:38:39.601Z,100350.66
2022-07-27T14:41:09.695Z,100354.72
2022-07-27T14:43:38.661Z,100358.72
2022-07-27T14:46:07.371Z,100360.09
2022-07-27T14:49:05.197Z,100358.88
2022-07-27T14:51:24.627Z,100347.56
2022-07-27T14:53:53.748Z,100358.44
2022-07-27T14:56:24.556Z,100354.34
2022-07-27T14:58:53.122Z,100353.84
2022-07-27T15:01:22.272Z,100347.56
2022-07-27T15:03:51.613Z,100346.53
2022-07-27T15:06:20.593Z,100348.13
2022-07-27T15:08:49.753Z,100346.59
2022-07-27T15:11:18.534Z,100340.59
2022-07-27T15:13:48.778Z,100347.50
2022-07-27T15:16:17.964Z,100347.47
2022-07-27T15:18:47.537Z,100346.00
2022-07-27T15:21:16.436Z,100346.81
2022-07-27T15:23:45.304Z,100348.41
2022-07-27T15:26:14.161Z,100348.84
2022-07-27T15:28:44.407Z,100352.25
2022-07-27T15:31:14.891Z,100345.34
2022-07-27T15:33:43.625Z,100341.34
2022-07-27T15:36:31.472Z,100349.53
2022-07-27T15:39:01.900Z,100344.09
2022-07-27T15:41:31.573Z,100331.75
2022-07-27T15:44:01.261Z,100340.34
2022-07-27T15:46:32.167Z,100340.16
2022-07-27T15:49:01.252Z,100347.91
2022-07-27T15:51:30.303Z,100348.44
2022-07-27T15:53:59.688Z,100345.84
2022-07-27T15:56:28.529Z,100340.34
2022-07-27T15:58:57.174Z,100344.75
2022-07-27T16:01:35.506Z,100342.28
2022-07-27T16:04:07.211Z,100340.41
2022-07-27T16:06:39.440Z,100345.72
2022-07-27T16:09:10.471Z,100341.06
2022-07-27T16:11:39.540Z,100342.28
2022-07-27T16:14:08.250Z,100339.28
2022-07-27T16:16:37.290Z,100337.53
2022-07-27T16:19:13.012Z,100333.31
2022-07-27T16:21:55.461Z,100324.22
2022-07-27T16:24:26.631Z,100327.47
2022-07-27T16:26:56.154Z,100331.44
2022-07-27T16:29:25.307Z,100322.72
2022-07-27T16:31:58.100Z,100329.44
2022-07-27T16:34:30.928Z,100330.13
2022-07-27T16:37:00.913Z,100332.06
2022-07-27T16:39:29.537Z,100323.16
2022-07-27T16:41:58.446Z,100333.38
2022-07-27T16:44:27.418Z,100335.28
2022-07-27T16:46:56.066Z,100334.38
2022-07-27T16:49:33.628Z,100331.38
2022-07-27T16:52:07.649Z,100326.28
2022-07-27T16:54:39.563Z,100330.06
2022-07-27T16:57:09.163Z,100329.97
2022-07-27T16:59:39.145Z,100330.34
2022-07-27T17:02:08.067Z,100338.31
2022-07-27T17:04:37.340Z,100333.34
2022-07-27T17:07:12.596Z,100324.72
2022-07-27T17:09:42.044Z,100321.03
2022-07-27T17:12:10.645Z,100312.22
2022-07-27T17:14:39.243Z,100314.16
2022-07-27T17:17:08.686Z,100315.56
2022-07-27T17:19:37.278Z,100319.31
2022-07-27T17:22:07.591Z,100317.34
2022-07-27T17:24:38.190Z,100316.16
2022-07-27T17:27:07.047Z,100312.16
2022-07-27T17:29:35.782Z,100309.22
2022-07-27T17:32:04.723Z,100312.13
2022-07-27T17:34:33.310Z,100307.88
2022-07-27T17:37:02.855Z,100315.97
2022-07-27T17:39:32.951Z,100308.47
2022-07-27T17:42:01.625Z,100311.41
2022-07-27T17:44:30.557Z,100311.13
2022-07-27T17:47:01.129Z,100309.16
2022-07-27T17:49:30.023Z,100317.53
2022-07-27T17:51:58.781Z,100299.53
2022-07-27T17:54:27.616Z,100319.66
2022-07-27T17:56:57.596Z,100324.50
2022-07-27T17:59:37.555Z,100325.25
2022-07-27T18:02:07.430Z,100335.97
2022-07-27T18:04:39.426Z,100336.66
2022-07-27T18:07:08.854Z,100342.38
2022-07-27T18:09:37.545Z,100337.41
2022-07-27T18:12:08.519Z,100342.47
2022-07-27T18:14:38.447Z,100337.47
2022-07-27T18:17:07.088Z,100331.00
2022-07-27T18:19:35.632Z,100325.81
2022-07-27T18:22:04.427Z,100330.16
2022-07-27T18:24:35.578Z,100331.34
2022-07-27T18:27:04.189Z,100333.19
2022-07-27T18:29:34.345Z,100330.00
2022-07-27T18:32:02.940Z,100329.34
2022-07-27T18:34:32.589Z,100337.19
2022-07-27T18:37:01.415Z,100336.00
2022-07-27T18:39:33.896Z,100344.31
2022-07-27T18:42:03.810Z,100342.66
2022-07-27T18:44:38.749Z,100352.84
2022-07-27T18:47:08.338Z,100352.13
2022-07-27T18:49:37.025Z,100353.31
2022-07-27T18:52:06.846Z,100355.28
2022-07-27T18:54:35.629Z,100362.72
2022-07-27T18:57:04.418Z,100364.38
2022-07-27T18:59:40.752Z,100373.00
2022-07-27T19:02:10.520Z,100369.56
2022-07-27T19:04:39.150Z,100377.94
2022-07-27T19:07:10.513Z,100373.00
2022-07-27T19:09:40.216Z,100378.31
2022-07-27T19:12:10.264Z,100379.34
2022-07-27T19:14:40.453Z,100375.56
2022-07-27T19:17:14.596Z,100379.56
2022-07-27T19:19:43.729Z,100382.28
2022-07-27T19:22:12.697Z,100386.94
2022-07-27T19:24:41.296Z,100385.34
2022-07-27T19:27:09.908Z,100395.63
2022-07-27T19:29:41.053Z,100401.03
2022-07-27T19:32:11.030Z,100403.75
2022-07-27T19:34:40.448Z,100405.75
2022-07-27T19:37:09.703Z,100412.06
2022-07-27T19:40:02.379Z,100422.47
2022-07-27T19:42:27.401Z,100423.53
2022-07-27T19:44:57.447Z,100422.75
2022-07-27T19:47:26.495Z,100428.31
2022-07-27T19:49:55.302Z,100429.44
2022-07-27T19:52:23.911Z,100439.13
2022-07-27T19:54:52.505Z,100440.94
2022-07-27T19:57:21.698Z,100445.78
2022-07-27T19:59:55.334Z,100457.50
2022-07-27T20:02:26.830Z,100447.81
2022-07-27T20:04:55.451Z,100457.69
2022-07-27T20:07:24.183Z,100467.50
2022-07-27T20:09:53.061Z,100460.41
2022-07-27T20:12:22.508Z,100470.38
2022-07-27T20:14:51.189Z,100463.06
2022-07-27T20:17:20.023Z,100476.59
2022-07-27T20:19:50.004Z,100473.63
2022-07-27T20:22:18.757Z,100476.13
2022-07-27T20:24:47.596Z,100479.84
2022-07-27T20:27:16.204Z,100477.44
2022-07-27T20:29:44.861Z,100478.94
2022-07-27T20:32:13.683Z,100479.47
2022-07-27T20:34:42.588Z,100472.16
2022-07-27T20:37:13.325Z,100482.50
2022-07-27T20:39:42.164Z,100485.22
2022-07-27T20:42:10.988Z,100486.53
2022-07-27T20:44:39.569Z,100489.75
2022-07-27T20:47:08.998Z,100492.88
2022-07-27T20:49:37.542Z,100491.31
2022-07-27T20:52:07.647Z,100496.94
2022-07-27T20:54:38.438Z,100499.16
2022-07-27T20:57:07.614Z,100504.94
2022-07-27T20:59:36.198Z,100507.72
2022-07-27T21:02:05.119Z,100503.41
2022-07-27T21:04:33.975Z,100507.22
2022-07-27T21:07:02.589Z,100517.22
2022-07-27T21:09:32.190Z,100523.25
2022-07-27T21:12:02.189Z,100523.13
2022-07-27T21:14:30.982Z,100521.03
2022-07-27T21:16:59.839Z,100521.78
2022-07-27T21:19:28.589Z,100521.22
2022-07-27T21:21:57.095Z,100521.50
2022-07-27T21:24:26.326Z,100530.31
2022-07-27T21:26:55.028Z,100528.91
2022-07-27T21:29:28.148Z,100533.53
2022-07-27T21:32:00.603Z,100532.94
2022-07-27T21:34:30.170Z,100543.84
2022-07-27T21:36:58.823Z,100537.44
2022-07-27T21:39:28.943Z,100540.78
2022-07-27T21:42:01.895Z,100540.63
2022-07-27T21:44:32.556Z,100546.22
2022-07-27T21:47:01.327Z,100550.78
2022-07-27T21:49:34.455Z,100555.38
2022-07-27T21:52:03.643Z,100556.69
2022-07-27T21:54:32.219Z,100571.50
2022-07-27T21:57:00.776Z,100575.16
2022-07-27T21:59:29.723Z,100571.16
2022-07-27T22:02:00.979Z,100575.22
2022-07-27T22:04:29.898Z,100580.13
2022-07-27T22:06:58.786Z,100580.53
2022-07-27T22:09:27.596Z,100577.16
2022-07-27T22:11:56.550Z,100580.91
2022-07-27T22:14:25.643Z,100575.31
2022-07-27T22:16:54.460Z,100579.81
2022-07-27T22:19:24.559Z,100592.66
2022-07-27T22:21:53.467Z,100591.22
2022-07-27T22:24:22.094Z,100592.09
2022-07-27T22:26:50.718Z,100596.28
2022-07-27T22:29:19.663Z,100595.97
2022-07-27T22:31:48.334Z,100596.09
2022-07-27T22:34:17.488Z,100596.53
2022-07-27T22:36:48.214Z,100600.66
2022-07-27T22:39:16.998Z,100598.75
2022-07-27T22:41:45.602Z,100602.88
2022-07-27T22:44:14.633Z,100599.78
2022-07-27T22:46:45.653Z,100601.88
2022-07-27T22:49:14.328Z,100605.22
2022-07-27T22:51:50.319Z,100609.38
2022-07-27T22:54:23.434Z,100614.22
2022-07-27T22:56:52.206Z,100617.94
2022-07-27T22:59:20.791Z,100619.19
2022-07-27T23:01:49.426Z,100620.16
2022-07-27T23:04:18.802Z,100617.09
2022-07-27T23:06:47.798Z,100623.38
2022-07-27T23:09:16.999Z,100621.78
2022-07-27T23:11:47.719Z,100620.44
2022-07-27T23:14:17.156Z,100623.78
2022-07-27T23:16:46.445Z,100617.78
2022-07-27T23:19:15.477Z,100612.84
2022-07-27T23:21:44.500Z,100620.19
2022-07-27T23:24:13.211Z,100620.84
2022-07-27T23:26:43.802Z,100623.16
2022-07-27T23:29:13.765Z,100622.16
2022-07-27T23:31:42.750Z,100626.03
2022-07-27T23:34:13.695Z,100637.72
2022-07-27T23:36:44.563Z,100641.84
2022-07-27T23:39:13.446Z,100645.97
2022-07-27T23:41:45.280Z,100650.22
2022-07-27T23:44:18.221Z,100656.47
2022-07-27T23:46:46.860Z,100653.09
2022-07-27T23:49:15.599Z,100657.34
2022-07-27T23:51:45.749Z,100659.28
2022-07-27T23:54:15.090Z,100656.03
2022-07-27T23:56:43.842Z,100656.28
2022-07-27T23:59:13.071Z,100651.97
